sensor_id;sensor_type;location;lat;lon;timestamp;P1;durP1;ratioP1;P2;durP2;ratioP2
946;SDS011;460;48.734;9.152;2022-08-07T00:01:16;0.97;;;0.97;;
946;SDS011;460;48.734;9.152;2022-08-07T00:03:44;1.27;;;1.00;;
946;SDS011;460;48.734;9.152;2022-08-07T00:06:11;1.10;;;0.80;;
946;SDS011;460;48.734;9.152;2022-08-07T00:08:40;1.00;;;0.97;;
946;SDS011;460;48.734;9.152;2022-08-07T00:11:07;1.00;;;0.90;;
946;SDS011;460;48.734;9.152;2022-08-07T00:13:35;1.43;;;0.90;;
946;SDS011;460;48.734;9.152;2022-08-07T00:16:03;1.60;;;1.20;;
946;SDS011;460;48.734;9.152;2022-08-07T00:18:31;1.20;;;1.10;;
946;SDS011;460;48.734;9.152;2022-08-07T00:20:58;0.80;;;0.80;;
946;SDS011;460;48.734;9.152;2022-08-07T00:23:28;0.90;;;0.50;;
946;SDS011;460;48.734;9.152;2022-08-07T00:25:57;1.30;;;1.20;;
946;SDS011;460;48.734;9.152;2022-08-07T00:28:25;0.60;;;0.60;;
946;SDS011;460;48.734;9.152;2022-08-07T00:30:53;0.70;;;0.70;;
946;SDS011;460;48.734;9.152;2022-08-07T00:33:21;0.80;;;0.80;;
946;SDS011;460;48.734;9.152;2022-08-07T00:35:53;1.17;;;0.90;;
946;SDS011;460;48.734;9.152;2022-08-07T00:38:22;1.77;;;1.47;;
946;SDS011;460;48.734;9.152;2022-08-07T00:40:49;0.80;;;0.80;;
946;SDS011;460;48.734;9.152;2022-08-07T00:43:18;1.67;;;1.27;;
946;SDS011;460;48.734;9.152;2022-08-07T00:45:45;1.13;;;1.03;;
946;SDS011;460;48.734;9.152;2022-08-07T00:48:14;0.80;;;0.80;;
946;SDS011;460;48.734;9.152;2022-08-07T00:50:42;1.37;;;1.03;;
946;SDS011;460;48.734;9.152;2022-08-07T00:53:09;1.03;;;0.70;;
946;SDS011;460;48.734;9.152;2022-08-07T00:55:37;1.10;;;1.10;;
946;SDS011;460;48.734;9.152;2022-08-07T00:58:04;1.20;;;1.10;;
946;SDS011;460;48.734;9.152;2022-08-07T01:00:32;0.90;;;0.80;;
946;SDS011;460;48.734;9.152;2022-08-07T01:02:59;0.90;;;0.90;;
946;SDS011;460;48.734;9.152;2022-08-07T01:05:26;1.10;;;1.00;;
946;SDS011;460;48.734;9.152;2022-08-07T01:07:54;0.90;;;0.80;;
946;SDS011;460;48.734;9.152;2022-08-07T01:10:21;1.10;;;0.87;;
946;SDS011;460;48.734;9.152;2022-08-07T01:12:48;1.03;;;0.97;;
946;SDS011;460;48.734;9.152;2022-08-07T01:15:16;1.40;;;1.30;;
946;SDS011;460;48.734;9.152;2022-08-07T01:17:45;1.03;;;0.97;;
946;SDS011;460;48.734;9.152;2022-08-07T01:20:13;0.80;;;0.80;;
946;SDS011;460;48.734;9.152;2022-08-07T01:22:44;0.70;;;0.70;;
946;SDS011;460;48.734;9.152;2022-08-07T01:25:12;1.27;;;0.90;;
946;SDS011;460;48.734;9.152;2022-08-07T01:27:40;1.00;;;0.90;;
946;SDS011;460;48.734;9.152;2022-08-07T01:30:08;0.80;;;0.80;;
946;SDS011;460;48.734;9.152;2022-08-07T01:32:36;1.97;;;1.43;;
946;SDS011;460;48.734;9.152;2022-08-07T01:35:05;1.50;;;1.37;;
946;SDS011;460;48.734;9.152;2022-08-07T01:37:34;1.30;;;1.20;;
946;SDS011;460;48.734;9.152;2022-08-07T01:40:04;2.00;;;1.10;;
946;SDS011;460;48.734;9.152;2022-08-07T01:42:32;0.90;;;0.90;;
946;SDS011;460;48.734;9.152;2022-08-07T01:45:00;1.10;;;1.00;;
946;SDS011;460;48.734;9.152;2022-08-07T01:47:29;1.40;;;0.90;;
946;SDS011;460;48.734;9.152;2022-08-07T01:49:57;1.20;;;1.10;;
946;SDS011;460;48.734;9.152;2022-08-07T01:52:25;2.23;;;1.30;;
946;SDS011;460;48.734;9.152;2022-08-07T01:54:55;0.87;;;0.87;;
946;SDS011;460;48.734;9.152;2022-08-07T01:57:26;3.33;;;0.70;;
946;SDS011;460;48.734;9.152;2022-08-07T02:00:00;1.40;;;1.10;;
946;SDS011;460;48.734;9.152;2022-08-07T02:02:32;1.10;;;1.00;;
946;SDS011;460;48.734;9.152;2022-08-07T02:05:05;1.07;;;0.93;;
946;SDS011;460;48.734;9.152;2022-08-07T02:07:36;1.00;;;0.93;;
946;SDS011;460;48.734;9.152;2022-08-07T02:10:08;1.10;;;1.00;;
946;SDS011;460;48.734;9.152;2022-08-07T02:12:38;1.07;;;1.00;;
946;SDS011;460;48.734;9.152;2022-08-07T02:15:08;1.03;;;0.93;;
946;SDS011;460;48.734;9.152;2022-08-07T02:17:36;0.87;;;0.87;;
946;SDS011;460;48.734;9.152;2022-08-07T02:20:05;1.10;;;0.90;;
946;SDS011;460;48.734;9.152;2022-08-07T02:22:35;0.93;;;0.93;;
946;SDS011;460;48.734;9.152;2022-08-07T02:25:04;0.90;;;0.90;;
946;SDS011;460;48.734;9.152;2022-08-07T02:27:32;0.80;;;0.80;;
946;SDS011;460;48.734;9.152;2022-08-07T02:30:02;1.50;;;1.10;;
946;SDS011;460;48.734;9.152;2022-08-07T02:32:31;0.80;;;0.80;;
946;SDS011;460;48.734;9.152;2022-08-07T02:35:02;0.70;;;0.70;;
946;SDS011;460;48.734;9.152;2022-08-07T02:37:30;1.03;;;0.80;;
946;SDS011;460;48.734;9.152;2022-08-07T02:39:59;1.50;;;1.30;;
946;SDS011;460;48.734;9.152;2022-08-07T02:42:27;1.20;;;1.10;;
946;SDS011;460;48.734;9.152;2022-08-07T02:44:55;1.10;;;1.10;;
946;SDS011;460;48.734;9.152;2022-08-07T02:47:24;1.00;;;0.90;;
946;SDS011;460;48.734;9.152;2022-08-07T02:49:51;0.80;;;0.80;;
946;SDS011;460;48.734;9.152;2022-08-07T02:52:20;1.13;;;1.03;;
946;SDS011;460;48.734;9.152;2022-08-07T02:54:51;0.67;;;0.67;;
946;SDS011;460;48.734;9.152;2022-08-07T02:57:19;1.10;;;1.00;;
946;SDS011;460;48.734;9.152;2022-08-07T02:59:48;0.80;;;0.80;;
946;SDS011;460;48.734;9.152;2022-08-07T03:02:17;1.00;;;0.90;;
946;SDS011;460;48.734;9.152;2022-08-07T03:04:46;0.97;;;0.97;;
946;SDS011;460;48.734;9.152;2022-08-07T03:07:14;1.30;;;1.20;;
946;SDS011;460;48.734;9.152;2022-08-07T03:09:42;1.23;;;1.13;;
946;SDS011;460;48.734;9.152;2022-08-07T03:12:10;0.80;;;0.80;;
946;SDS011;460;48.734;9.152;2022-08-07T03:14:38;1.20;;;1.10;;
946;SDS011;460;48.734;9.152;2022-08-07T03:17:06;2.10;;;1.40;;
946;SDS011;460;48.734;9.152;2022-08-07T03:19:33;0.93;;;0.93;;
946;SDS011;460;48.734;9.152;2022-08-07T03:22:02;1.17;;;1.10;;
946;SDS011;460;48.734;9.152;2022-08-07T03:24:30;1.33;;;1.23;;
946;SDS011;460;48.734;9.152;2022-08-07T03:26:59;1.10;;;1.00;;
946;SDS011;460;48.734;9.152;2022-08-07T03:29:28;0.73;;;0.73;;
946;SDS011;460;48.734;9.152;2022-08-07T03:31:59;0.80;;;0.70;;
946;SDS011;460;48.734;9.152;2022-08-07T03:34:29;1.07;;;0.93;;
946;SDS011;460;48.734;9.152;2022-08-07T03:36:58;1.73;;;1.30;;
946;SDS011;460;48.734;9.152;2022-08-07T03:39:27;1.13;;;1.03;;
946;SDS011;460;48.734;9.152;2022-08-07T03:41:56;3.00;;;1.50;;
946;SDS011;460;48.734;9.152;2022-08-07T03:44:24;1.97;;;1.53;;
946;SDS011;460;48.734;9.152;2022-08-07T03:46:52;0.77;;;0.77;;
946;SDS011;460;48.734;9.152;2022-08-07T03:49:20;1.50;;;1.40;;
946;SDS011;460;48.734;9.152;2022-08-07T03:51:47;1.60;;;0.97;;
946;SDS011;460;48.734;9.152;2022-08-07T03:54:16;1.43;;;0.90;;
946;SDS011;460;48.734;9.152;2022-08-07T03:56:44;2.73;;;1.57;;
946;SDS011;460;48.734;9.152;2022-08-07T03:59:12;0.83;;;0.83;;
946;SDS011;460;48.734;9.152;2022-08-07T04:01:40;1.43;;;0.90;;
946;SDS011;460;48.734;9.152;2022-08-07T04:04:08;1.40;;;1.30;;
946;SDS011;460;48.734;9.152;2022-08-07T04:06:36;1.20;;;1.10;;
946;SDS011;460;48.734;9.152;2022-08-07T04:09:05;2.13;;;1.20;;
946;SDS011;460;48.734;9.152;2022-08-07T04:11:32;0.73;;;0.73;;
946;SDS011;460;48.734;9.152;2022-08-07T04:14:01;2.60;;;1.50;;
946;SDS011;460;48.734;9.152;2022-08-07T04:16:29;0.73;;;0.73;;
946;SDS011;460;48.734;9.152;2022-08-07T04:18:57;1.30;;;1.20;;
946;SDS011;460;48.734;9.152;2022-08-07T04:21:25;1.00;;;1.00;;
946;SDS011;460;48.734;9.152;2022-08-07T04:23:52;3.90;;;2.03;;
946;SDS011;460;48.734;9.152;2022-08-07T04:26:19;1.20;;;1.20;;
946;SDS011;460;48.734;9.152;2022-08-07T04:28:46;1.10;;;1.10;;
946;SDS011;460;48.734;9.152;2022-08-07T04:31:14;1.17;;;1.07;;
946;SDS011;460;48.734;9.152;2022-08-07T04:33:41;1.10;;;1.00;;
946;SDS011;460;48.734;9.152;2022-08-07T04:36:10;1.40;;;1.30;;
946;SDS011;460;48.734;9.152;2022-08-07T04:38:39;1.20;;;1.10;;
946;SDS011;460;48.734;9.152;2022-08-07T04:41:06;1.77;;;1.37;;
946;SDS011;460;48.734;9.152;2022-08-07T04:43:35;1.73;;;1.13;;
946;SDS011;460;48.734;9.152;2022-08-07T04:46:06;1.07;;;0.87;;
946;SDS011;460;48.734;9.152;2022-08-07T04:48:40;1.27;;;1.17;;
946;SDS011;460;48.734;9.152;2022-08-07T04:51:16;1.07;;;1.07;;
946;SDS011;460;48.734;9.152;2022-08-07T04:53:51;1.40;;;1.30;;
946;SDS011;460;48.734;9.152;2022-08-07T04:56:27;1.10;;;1.10;;
946;SDS011;460;48.734;9.152;2022-08-07T04:59:05;2.80;;;1.33;;
946;SDS011;460;48.734;9.152;2022-08-07T05:01:37;1.43;;;1.10;;
946;SDS011;460;48.734;9.152;2022-08-07T05:04:09;2.43;;;1.80;;
946;SDS011;460;48.734;9.152;2022-08-07T05:06:41;1.60;;;1.50;;
946;SDS011;460;48.734;9.152;2022-08-07T05:09:18;1.33;;;1.23;;
946;SDS011;460;48.734;9.152;2022-08-07T05:11:51;0.90;;;0.90;;
946;SDS011;460;48.734;9.152;2022-08-07T05:14:19;0.80;;;0.80;;
946;SDS011;460;48.734;9.152;2022-08-07T05:16:51;1.73;;;1.37;;
946;SDS011;460;48.734;9.152;2022-08-07T05:19:24;1.30;;;1.20;;
946;SDS011;460;48.734;9.152;2022-08-07T05:21:54;1.07;;;1.07;;
946;SDS011;460;48.734;9.152;2022-08-07T05:24:25;1.83;;;1.23;;
946;SDS011;460;48.734;9.152;2022-08-07T05:26:58;1.60;;;1.50;;
946;SDS011;460;48.734;9.152;2022-08-07T05:29:26;1.70;;;1.60;;
946;SDS011;460;48.734;9.152;2022-08-07T05:31:55;1.07;;;1.07;;
946;SDS011;460;48.734;9.152;2022-08-07T05:34:25;1.43;;;1.33;;
946;SDS011;460;48.734;9.152;2022-08-07T05:36:52;0.87;;;0.87;;
946;SDS011;460;48.734;9.152;2022-08-07T05:39:23;1.53;;;1.43;;
946;SDS011;460;48.734;9.152;2022-08-07T05:41:51;1.10;;;1.10;;
946;SDS011;460;48.734;9.152;2022-08-07T05:44:22;1.30;;;1.20;;
946;SDS011;460;48.734;9.152;2022-08-07T05:46:51;1.83;;;1.40;;
946;SDS011;460;48.734;9.152;2022-08-07T05:49:18;1.10;;;1.10;;
946;SDS011;460;48.734;9.152;2022-08-07T05:51:47;1.17;;;1.07;;
946;SDS011;460;48.734;9.152;2022-08-07T05:54:15;1.27;;;1.27;;
946;SDS011;460;48.734;9.152;2022-08-07T05:56:43;1.33;;;1.23;;
946;SDS011;460;48.734;9.152;2022-08-07T05:59:13;2.07;;;1.80;;
946;SDS011;460;48.734;9.152;2022-08-07T06:01:44;1.73;;;1.60;;
946;SDS011;460;48.734;9.152;2022-08-07T06:04:13;1.70;;;1.60;;
946;SDS011;460;48.734;9.152;2022-08-07T06:06:42;2.10;;;2.00;;
946;SDS011;460;48.734;9.152;2022-08-07T06:09:10;2.47;;;2.10;;
946;SDS011;460;48.734;9.152;2022-08-07T06:11:39;2.83;;;2.23;;
946;SDS011;460;48.734;9.152;2022-08-07T06:14:06;2.60;;;2.40;;
946;SDS011;460;48.734;9.152;2022-08-07T06:16:33;2.97;;;2.77;;
946;SDS011;460;48.734;9.152;2022-08-07T06:19:07;1.50;;;1.40;;
946;SDS011;460;48.734;9.152;2022-08-07T06:21:42;2.30;;;2.10;;
946;SDS011;460;48.734;9.152;2022-08-07T06:24:11;2.77;;;2.53;;
946;SDS011;460;48.734;9.152;2022-08-07T06:26:38;2.80;;;2.60;;
946;SDS011;460;48.734;9.152;2022-08-07T06:29:06;2.87;;;2.60;;
946;SDS011;460;48.734;9.152;2022-08-07T06:31:34;2.83;;;1.90;;
946;SDS011;460;48.734;9.152;2022-08-07T06:34:01;1.87;;;1.50;;
946;SDS011;460;48.734;9.152;2022-08-07T06:36:27;3.70;;;2.80;;
946;SDS011;460;48.734;9.152;2022-08-07T06:38:54;2.40;;;2.20;;
946;SDS011;460;48.734;9.152;2022-08-07T06:41:25;2.90;;;2.20;;
946;SDS011;460;48.734;9.152;2022-08-07T06:43:55;2.50;;;2.30;;
946;SDS011;460;48.734;9.152;2022-08-07T06:46:22;2.20;;;2.00;;
946;SDS011;460;48.734;9.152;2022-08-07T06:48:49;2.47;;;2.20;;
946;SDS011;460;48.734;9.152;2022-08-07T06:51:17;2.40;;;2.20;;
946;SDS011;460;48.734;9.152;2022-08-07T06:53:47;3.20;;;2.00;;
946;SDS011;460;48.734;9.152;2022-08-07T06:56:15;2.50;;;2.03;;
946;SDS011;460;48.734;9.152;2022-08-07T06:59:05;4.20;;;1.63;;
946;SDS011;460;48.734;9.152;2022-08-07T07:01:32;2.40;;;2.20;;
946;SDS011;460;48.734;9.152;2022-08-07T07:04:01;2.67;;;1.90;;
946;SDS011;460;48.734;9.152;2022-08-07T07:06:29;1.13;;;1.03;;
946;SDS011;460;48.734;9.152;2022-08-07T07:11:42;1.60;;;1.50;;
946;SDS011;460;48.734;9.152;2022-08-07T07:14:15;2.60;;;2.40;;
946;SDS011;460;48.734;9.152;2022-08-07T07:16:46;1.90;;;1.80;;
946;SDS011;460;48.734;9.152;2022-08-07T07:19:17;2.43;;;1.80;;
946;SDS011;460;48.734;9.152;2022-08-07T07:21:48;1.87;;;1.70;;
946;SDS011;460;48.734;9.152;2022-08-07T07:24:16;1.70;;;1.60;;
946;SDS011;460;48.734;9.152;2022-08-07T07:26:43;1.50;;;1.40;;
946;SDS011;460;48.734;9.152;2022-08-07T07:29:12;1.67;;;1.57;;
946;SDS011;460;48.734;9.152;2022-08-07T07:31:43;1.60;;;1.50;;
946;SDS011;460;48.734;9.152;2022-08-07T07:34:16;3.67;;;1.47;;
946;SDS011;460;48.734;9.152;2022-08-07T07:36:47;3.33;;;1.80;;
946;SDS011;460;48.734;9.152;2022-08-07T07:39:15;1.47;;;1.37;;
946;SDS011;460;48.734;9.152;2022-08-07T07:41:44;1.50;;;1.37;;
946;SDS011;460;48.734;9.152;2022-08-07T07:44:16;1.20;;;1.10;;
946;SDS011;460;48.734;9.152;2022-08-07T07:46:45;1.77;;;1.57;;
946;SDS011;460;48.734;9.152;2022-08-07T07:49:15;2.13;;;1.83;;
946;SDS011;460;48.734;9.152;2022-08-07T07:51:43;1.43;;;1.07;;
946;SDS011;460;48.734;9.152;2022-08-07T07:54:15;1.13;;;1.13;;
946;SDS011;460;48.734;9.152;2022-08-07T07:56:45;1.83;;;1.57;;
946;SDS011;460;48.734;9.152;2022-08-07T07:59:12;1.33;;;1.13;;
946;SDS011;460;48.734;9.152;2022-08-07T08:04:16;1.10;;;1.00;;
946;SDS011;460;48.734;9.152;2022-08-07T08:06:45;0.90;;;0.90;;
946;SDS011;460;48.734;9.152;2022-08-07T08:09:13;1.00;;;1.00;;
946;SDS011;460;48.734;9.152;2022-08-07T08:11:42;1.17;;;1.07;;
946;SDS011;460;48.734;9.152;2022-08-07T08:14:09;1.40;;;1.30;;
946;SDS011;460;48.734;9.152;2022-08-07T08:16:38;0.93;;;0.90;;
946;SDS011;460;48.734;9.152;2022-08-07T08:19:08;1.40;;;1.30;;
946;SDS011;460;48.734;9.152;2022-08-07T08:21:38;1.10;;;1.10;;
946;SDS011;460;48.734;9.152;2022-08-07T08:24:36;1.27;;;1.20;;
946;SDS011;460;48.734;9.152;2022-08-07T08:27:23;1.27;;;1.17;;
946;SDS011;460;48.734;9.152;2022-08-07T08:29:55;1.13;;;1.10;;
946;SDS011;460;48.734;9.152;2022-08-07T08:32:28;1.37;;;1.27;;
946;SDS011;460;48.734;9.152;2022-08-07T08:34:59;1.33;;;1.23;;
946;SDS011;460;48.734;9.152;2022-08-07T08:37:29;1.33;;;1.23;;
946;SDS011;460;48.734;9.152;2022-08-07T08:39:57;1.33;;;1.23;;
946;SDS011;460;48.734;9.152;2022-08-07T08:42:27;1.13;;;1.13;;
946;SDS011;460;48.734;9.152;2022-08-07T08:45:02;1.60;;;1.20;;
946;SDS011;460;48.734;9.152;2022-08-07T08:47:39;1.60;;;1.30;;
946;SDS011;460;48.734;9.152;2022-08-07T08:50:13;1.40;;;1.30;;
946;SDS011;460;48.734;9.152;2022-08-07T08:52:48;1.10;;;1.00;;
946;SDS011;460;48.734;9.152;2022-08-07T08:55:25;0.93;;;0.90;;
946;SDS011;460;48.734;9.152;2022-08-07T08:57:57;1.43;;;1.33;;
946;SDS011;460;48.734;9.152;2022-08-07T09:00:31;1.20;;;1.10;;
946;SDS011;460;48.734;9.152;2022-08-07T09:03:18;1.20;;;1.10;;
946;SDS011;460;48.734;9.152;2022-08-07T09:05:52;1.03;;;1.03;;
946;SDS011;460;48.734;9.152;2022-08-07T09:08:26;1.30;;;1.20;;
946;SDS011;460;48.734;9.152;2022-08-07T09:11:12;1.03;;;1.03;;
946;SDS011;460;48.734;9.152;2022-08-07T09:13:45;1.37;;;1.27;;
946;SDS011;460;48.734;9.152;2022-08-07T09:16:24;1.50;;;1.40;;
946;SDS011;460;48.734;9.152;2022-08-07T09:19:08;2.70;;;1.70;;
946;SDS011;460;48.734;9.152;2022-08-07T09:21:43;1.60;;;1.30;;
946;SDS011;460;48.734;9.152;2022-08-07T09:24:23;1.50;;;1.20;;
946;SDS011;460;48.734;9.152;2022-08-07T09:26:58;1.20;;;1.10;;
946;SDS011;460;48.734;9.152;2022-08-07T09:29:40;1.17;;;1.00;;
946;SDS011;460;48.734;9.152;2022-08-07T09:32:30;0.90;;;0.90;;
946;SDS011;460;48.734;9.152;2022-08-07T09:35:16;1.80;;;1.70;;
946;SDS011;460;48.734;9.152;2022-08-07T09:37:50;1.10;;;1.10;;
946;SDS011;460;48.734;9.152;2022-08-07T09:40:25;1.00;;;0.97;;
946;SDS011;460;48.734;9.152;2022-08-07T09:42:59;1.10;;;1.00;;
946;SDS011;460;48.734;9.152;2022-08-07T09:45:36;1.10;;;1.07;;
946;SDS011;460;48.734;9.152;2022-08-07T09:48:16;0.70;;;0.70;;
946;SDS011;460;48.734;9.152;2022-08-07T09:50:58;1.00;;;0.83;;
946;SDS011;460;48.734;9.152;2022-08-07T09:53:37;1.17;;;1.10;;
946;SDS011;460;48.734;9.152;2022-08-07T09:59:30;0.87;;;0.87;;
946;SDS011;460;48.734;9.152;2022-08-07T10:02:12;0.93;;;0.93;;
946;SDS011;460;48.734;9.152;2022-08-07T10:07:57;1.33;;;1.17;;
946;SDS011;460;48.734;9.152;2022-08-07T10:10:32;0.70;;;0.70;;
946;SDS011;460;48.734;9.152;2022-08-07T10:16:03;1.00;;;1.00;;
946;SDS011;460;48.734;9.152;2022-08-07T10:18:44;0.73;;;0.73;;
946;SDS011;460;48.734;9.152;2022-08-07T10:21:39;0.83;;;0.83;;
946;SDS011;460;48.734;9.152;2022-08-07T10:24:20;2.17;;;0.90;;
946;SDS011;460;48.734;9.152;2022-08-07T10:27:02;0.70;;;0.67;;
946;SDS011;460;48.734;9.152;2022-08-07T10:29:46;1.10;;;1.00;;
946;SDS011;460;48.734;9.152;2022-08-07T10:32:33;1.30;;;1.20;;
946;SDS011;460;48.734;9.152;2022-08-07T10:35:11;0.70;;;0.70;;
946;SDS011;460;48.734;9.152;2022-08-07T10:37:53;0.80;;;0.80;;
946;SDS011;460;48.734;9.152;2022-08-07T10:40:35;0.77;;;0.77;;
946;SDS011;460;48.734;9.152;2022-08-07T10:43:09;0.83;;;0.60;;
946;SDS011;460;48.734;9.152;2022-08-07T10:45:42;0.83;;;0.77;;
946;SDS011;460;48.734;9.152;2022-08-07T10:48:21;0.80;;;0.80;;
946;SDS011;460;48.734;9.152;2022-08-07T10:50:56;0.97;;;0.87;;
946;SDS011;460;48.734;9.152;2022-08-07T10:53:29;0.70;;;0.70;;
946;SDS011;460;48.734;9.152;2022-08-07T10:56:04;0.90;;;0.90;;
946;SDS011;460;48.734;9.152;2022-08-07T10:58:41;0.70;;;0.70;;
946;SDS011;460;48.734;9.152;2022-08-07T11:01:21;1.27;;;0.70;;
946;SDS011;460;48.734;9.152;2022-08-07T11:03:58;0.93;;;0.83;;
946;SDS011;460;48.734;9.152;2022-08-07T11:06:34;0.60;;;0.60;;
946;SDS011;460;48.734;9.152;2022-08-07T11:09:11;0.80;;;0.80;;
946;SDS011;460;48.734;9.152;2022-08-07T11:11:46;1.23;;;0.70;;
946;SDS011;460;48.734;9.152;2022-08-07T11:14:19;0.73;;;0.70;;
946;SDS011;460;48.734;9.152;2022-08-07T11:16:52;0.77;;;0.77;;
946;SDS011;460;48.734;9.152;2022-08-07T11:19:23;0.80;;;0.80;;
946;SDS011;460;48.734;9.152;2022-08-07T11:22:01;0.80;;;0.80;;
946;SDS011;460;48.734;9.152;2022-08-07T11:24:36;0.60;;;0.60;;
946;SDS011;460;48.734;9.152;2022-08-07T11:27:13;0.97;;;0.97;;
946;SDS011;460;48.734;9.152;2022-08-07T11:29:48;0.50;;;0.50;;
946;SDS011;460;48.734;9.152;2022-08-07T11:32:20;0.77;;;0.77;;
946;SDS011;460;48.734;9.152;2022-08-07T11:34:54;0.63;;;0.63;;
946;SDS011;460;48.734;9.152;2022-08-07T11:37:26;0.80;;;0.80;;
946;SDS011;460;48.734;9.152;2022-08-07T11:40:09;0.87;;;0.87;;
946;SDS011;460;48.734;9.152;2022-08-07T11:43:02;0.87;;;0.87;;
946;SDS011;460;48.734;9.152;2022-08-07T11:45:47;0.83;;;0.70;;
946;SDS011;460;48.734;9.152;2022-08-07T11:51:26;0.60;;;0.60;;
946;SDS011;460;48.734;9.152;2022-08-07T11:54:08;0.80;;;0.80;;
946;SDS011;460;48.734;9.152;2022-08-07T11:56:46;0.70;;;0.70;;
946;SDS011;460;48.734;9.152;2022-08-07T11:59:29;0.60;;;0.60;;
946;SDS011;460;48.734;9.152;2022-08-07T12:02:11;0.90;;;0.90;;
946;SDS011;460;48.734;9.152;2022-08-07T12:05:03;0.70;;;0.70;;
946;SDS011;460;48.734;9.152;2022-08-07T12:07:35;0.77;;;0.77;;
946;SDS011;460;48.734;9.152;2022-08-07T12:10:08;0.70;;;0.70;;
946;SDS011;460;48.734;9.152;2022-08-07T12:12:41;0.80;;;0.80;;
946;SDS011;460;48.734;9.152;2022-08-07T12:15:14;0.60;;;0.60;;
946;SDS011;460;48.734;9.152;2022-08-07T12:17:47;0.77;;;0.77;;
946;SDS011;460;48.734;9.152;2022-08-07T12:20:19;0.83;;;0.63;;
946;SDS011;460;48.734;9.152;2022-08-07T12:22:55;0.87;;;0.87;;
946;SDS011;460;48.734;9.152;2022-08-07T12:25:38;0.83;;;0.70;;
946;SDS011;460;48.734;9.152;2022-08-07T12:28:22;0.57;;;0.57;;
946;SDS011;460;48.734;9.152;2022-08-07T12:30:56;0.87;;;0.80;;
946;SDS011;460;48.734;9.152;2022-08-07T12:33:28;0.60;;;0.60;;
946;SDS011;460;48.734;9.152;2022-08-07T12:35:57;0.70;;;0.70;;
946;SDS011;460;48.734;9.152;2022-08-07T12:38:25;0.75;;;0.75;;
946;SDS011;460;48.734;9.152;2022-08-07T12:40:53;0.70;;;0.70;;
946;SDS011;460;48.734;9.152;2022-08-07T12:43:22;0.68;;;0.68;;
946;SDS011;460;48.734;9.152;2022-08-07T12:45:53;0.70;;;0.70;;
946;SDS011;460;48.734;9.152;2022-08-07T12:48:28;0.95;;;0.95;;
946;SDS011;460;48.734;9.152;2022-08-07T12:51:07;0.70;;;0.70;;
946;SDS011;460;48.734;9.152;2022-08-07T12:53:39;0.90;;;0.90;;
946;SDS011;460;48.734;9.152;2022-08-07T12:56:11;1.35;;;0.98;;
946;SDS011;460;48.734;9.152;2022-08-07T12:58:46;0.60;;;0.60;;
946;SDS011;460;48.734;9.152;2022-08-07T13:01:18;0.80;;;0.80;;
946;SDS011;460;48.734;9.152;2022-08-07T13:04:15;0.60;;;0.60;;
946;SDS011;460;48.734;9.152;2022-08-07T13:06:58;0.77;;;0.77;;
946;SDS011;460;48.734;9.152;2022-08-07T13:09:41;0.60;;;0.60;;
946;SDS011;460;48.734;9.152;2022-08-07T13:12:18;0.98;;;0.98;;
946;SDS011;460;48.734;9.152;2022-08-07T13:14:56;0.88;;;0.88;;
946;SDS011;460;48.734;9.152;2022-08-07T13:17:32;1.13;;;0.80;;
946;SDS011;460;48.734;9.152;2022-08-07T13:20:11;0.60;;;0.60;;
946;SDS011;460;48.734;9.152;2022-08-07T13:22:44;0.82;;;0.82;;
946;SDS011;460;48.734;9.152;2022-08-07T13:25:16;0.90;;;0.90;;
946;SDS011;460;48.734;9.152;2022-08-07T13:27:52;0.63;;;0.60;;
946;SDS011;460;48.734;9.152;2022-08-07T13:30:23;0.85;;;0.85;;
946;SDS011;460;48.734;9.152;2022-08-07T13:32:55;1.10;;;1.10;;
946;SDS011;460;48.734;9.152;2022-08-07T13:35:30;0.80;;;0.80;;
946;SDS011;460;48.734;9.152;2022-08-07T13:38:06;0.60;;;0.60;;
946;SDS011;460;48.734;9.152;2022-08-07T13:40:41;0.77;;;0.77;;
946;SDS011;460;48.734;9.152;2022-08-07T13:43:14;0.80;;;0.80;;
946;SDS011;460;48.734;9.152;2022-08-07T13:45:43;0.88;;;0.88;;
946;SDS011;460;48.734;9.152;2022-08-07T13:48:13;0.80;;;0.80;;
946;SDS011;460;48.734;9.152;2022-08-07T13:50:42;0.85;;;0.85;;
946;SDS011;460;48.734;9.152;2022-08-07T13:53:09;0.77;;;0.77;;
946;SDS011;460;48.734;9.152;2022-08-07T13:55:44;1.00;;;1.00;;
946;SDS011;460;48.734;9.152;2022-08-07T13:58:12;0.60;;;0.60;;
946;SDS011;460;48.734;9.152;2022-08-07T14:00:59;0.77;;;0.77;;
946;SDS011;460;48.734;9.152;2022-08-07T14:03:35;0.85;;;0.73;;
946;SDS011;460;48.734;9.152;2022-08-07T14:06:05;0.90;;;0.90;;
946;SDS011;460;48.734;9.152;2022-08-07T14:08:33;0.93;;;0.90;;
946;SDS011;460;48.734;9.152;2022-08-07T14:11:05;0.77;;;0.77;;
946;SDS011;460;48.734;9.152;2022-08-07T14:13:32;0.70;;;0.70;;
946;SDS011;460;48.734;9.152;2022-08-07T14:16:03;1.60;;;1.10;;
946;SDS011;460;48.734;9.152;2022-08-07T14:18:38;0.70;;;0.70;;
946;SDS011;460;48.734;9.152;2022-08-07T14:21:10;0.97;;;0.90;;
946;SDS011;460;48.734;9.152;2022-08-07T14:23:42;0.90;;;0.90;;
946;SDS011;460;48.734;9.152;2022-08-07T14:26:16;0.53;;;0.53;;
946;SDS011;460;48.734;9.152;2022-08-07T14:28:47;0.90;;;0.90;;
946;SDS011;460;48.734;9.152;2022-08-07T14:31:15;0.80;;;0.80;;
946;SDS011;460;48.734;9.152;2022-08-07T14:33:45;0.70;;;0.70;;
946;SDS011;460;48.734;9.152;2022-08-07T14:36:12;0.80;;;0.80;;
946;SDS011;460;48.734;9.152;2022-08-07T14:38:39;0.63;;;0.63;;
946;SDS011;460;48.734;9.152;2022-08-07T14:41:10;1.10;;;1.00;;
946;SDS011;460;48.734;9.152;2022-08-07T14:43:39;1.00;;;0.90;;
946;SDS011;460;48.734;9.152;2022-08-07T14:46:08;0.73;;;0.73;;
946;SDS011;460;48.734;9.152;2022-08-07T14:48:36;0.70;;;0.70;;
946;SDS011;460;48.734;9.152;2022-08-07T14:51:08;0.80;;;0.80;;
946;SDS011;460;48.734;9.152;2022-08-07T14:53:38;1.10;;;0.97;;
946;SDS011;460;48.734;9.152;2022-08-07T14:56:09;0.80;;;0.80;;
946;SDS011;460;48.734;9.152;2022-08-07T14:58:38;1.00;;;1.00;;
946;SDS011;460;48.734;9.152;2022-08-07T15:01:08;1.07;;;0.97;;
946;SDS011;460;48.734;9.152;2022-08-07T15:03:36;1.00;;;1.00;;
946;SDS011;460;48.734;9.152;2022-08-07T15:06:05;1.03;;;0.93;;
946;SDS011;460;48.734;9.152;2022-08-07T15:08:35;0.80;;;0.80;;
946;SDS011;460;48.734;9.152;2022-08-07T15:11:09;1.43;;;1.33;;
946;SDS011;460;48.734;9.152;2022-08-07T15:13:38;1.23;;;1.13;;
946;SDS011;460;48.734;9.152;2022-08-07T15:16:13;0.70;;;0.70;;
946;SDS011;460;48.734;9.152;2022-08-07T15:18:42;1.30;;;1.00;;
946;SDS011;460;48.734;9.152;2022-08-07T15:21:13;1.20;;;1.10;;
946;SDS011;460;48.734;9.152;2022-08-07T15:23:44;0.83;;;0.83;;
946;SDS011;460;48.734;9.152;2022-08-07T15:26:14;0.80;;;0.80;;
946;SDS011;460;48.734;9.152;2022-08-07T15:28:44;0.87;;;0.87;;
946;SDS011;460;48.734;9.152;2022-08-07T15:31:13;0.87;;;0.87;;
946;SDS011;460;48.734;9.152;2022-08-07T15:33:42;1.20;;;1.10;;
946;SDS011;460;48.734;9.152;2022-08-07T15:36:10;1.13;;;1.10;;
946;SDS011;460;48.734;9.152;2022-08-07T15:38:39;0.93;;;0.70;;
946;SDS011;460;48.734;9.152;2022-08-07T15:41:08;1.00;;;0.90;;
946;SDS011;460;48.734;9.152;2022-08-07T15:43:38;0.93;;;0.93;;
946;SDS011;460;48.734;9.152;2022-08-07T15:46:16;0.90;;;0.90;;
946;SDS011;460;48.734;9.152;2022-08-07T15:48:47;0.90;;;0.90;;
946;SDS011;460;48.734;9.152;2022-08-07T15:51:15;0.80;;;0.80;;
946;SDS011;460;48.734;9.152;2022-08-07T15:53:46;0.93;;;0.87;;
946;SDS011;460;48.734;9.152;2022-08-07T15:56:17;1.57;;;1.00;;
946;SDS011;460;48.734;9.152;2022-08-07T15:58:48;1.40;;;0.80;;
946;SDS011;460;48.734;9.152;2022-08-07T16:01:17;0.90;;;0.90;;
946;SDS011;460;48.734;9.152;2022-08-07T16:03:48;1.17;;;1.10;;
946;SDS011;460;48.734;9.152;2022-08-07T16:06:23;2.30;;;0.93;;
946;SDS011;460;48.734;9.152;2022-08-07T16:08:55;1.10;;;0.80;;
946;SDS011;460;48.734;9.152;2022-08-07T16:11:29;1.20;;;1.10;;
946;SDS011;460;48.734;9.152;2022-08-07T16:14:08;1.30;;;1.20;;
946;SDS011;460;48.734;9.152;2022-08-07T16:16:48;1.53;;;1.43;;
946;SDS011;460;48.734;9.152;2022-08-07T16:19:27;0.80;;;0.80;;
946;SDS011;460;48.734;9.152;2022-08-07T16:22:13;1.37;;;1.27;;
946;SDS011;460;48.734;9.152;2022-08-07T16:25:05;1.00;;;0.83;;
946;SDS011;460;48.734;9.152;2022-08-07T16:27:46;0.80;;;0.80;;
946;SDS011;460;48.734;9.152;2022-08-07T16:30:16;0.93;;;0.93;;
946;SDS011;460;48.734;9.152;2022-08-07T16:32:46;1.00;;;0.90;;